Аэропорт: Хабаровск-Новый. Хабаровск

ICAO: UHHH

METAR:
2021-04-21 21:30:00
UHHH 212130Z 17003MPS CAVOK 06/M04 Q1023 R23R/090060 NOSIG RMK QFE761/1014
METAR:
2021-04-21 19:51:00
TAF UHHH 211951Z 2121/2303 17003MPS 9999 NSC TEMPO 2121/2123 FEW011 TEMPO 2200/2212 19008MPS SCT030